Time;durP1;ratioP1;P1;durP2;ratioP2;P2;SDS_P1;SDS_P2;PMS_P1;PMS_P2;Temp;Humidity;BMP_temperature;BMP_pressure;BME280_temperature;BME280_humidity;BME280_pressure;Samples;Min_cycle;Max_cycle;Signal;HPM_P1;HPM_P2
2021/01/24 00:01:32;;;;;;;15.87;9.47;;;2.10;99.90;;;;;;5017337;28;20187;-53
2021/01/24 00:03:57;;;;;;;18.80;10.00;;;2.20;99.90;;;;;;5024734;28;20208;-54
2021/01/24 00:06:23;;;;;;;14.20;10.10;;;2.20;99.90;;;;;;5018509;28;20227;-52
2021/01/24 00:08:48;;;;;;;16.83;10.87;;;2.20;99.90;;;;;;5008603;28;20215;-53
2021/01/24 00:11:13;;;;;;;13.23;10.80;;;2.20;99.90;;;;;;5025241;28;20210;-54
2021/01/24 00:13:39;;;;;;;13.40;9.60;;;2.20;99.90;;;;;;5021161;28;20233;-56
2021/01/24 00:16:05;;;;;;;15.27;10.53;;;2.10;99.90;;;;;;5020401;28;20194;-57
2021/01/24 00:18:30;;;;;;;12.97;9.87;;;2.10;99.90;;;;;;5021436;28;20597;-51
2021/01/24 00:20:56;;;;;;;14.07;10.50;;;2.10;99.90;;;;;;5019083;28;20182;-55
2021/01/24 00:23:21;;;;;;;14.00;9.50;;;2.10;99.90;;;;;;5009428;28;20718;-55
2021/01/24 00:25:47;;;;;;;13.03;9.30;;;2.10;99.90;;;;;;5022078;28;20234;-54
2021/01/24 00:28:19;;;;;;;14.73;9.10;;;2.10;99.90;;;;;;5024841;28;20218;-48
2021/01/24 00:30:44;;;;;;;10.17;8.37;;;2.10;99.90;;;;;;5017168;28;20235;-51
2021/01/24 00:33:10;;;;;;;13.73;9.67;;;2.10;99.90;;;;;;5024639;28;20191;-48
2021/01/24 00:35:35;;;;;;;14.97;8.77;;;2.00;99.90;;;;;;5020482;28;20198;-49
2021/01/24 00:38:01;;;;;;;17.27;10.17;;;1.90;99.90;;;;;;5019810;28;20223;-57
2021/01/24 00:40:26;;;;;;;12.80;9.67;;;1.90;99.90;;;;;;5008222;28;20210;-52
2021/01/24 00:42:52;;;;;;;15.13;9.90;;;1.90;99.90;;;;;;5023331;28;20214;-52
2021/01/24 00:45:17;;;;;;;12.73;10.47;;;1.80;99.90;;;;;;5023949;28;20219;-50
2021/01/24 00:47:43;;;;;;;15.07;10.03;;;1.70;99.90;;;;;;5016930;28;20203;-52
2021/01/24 00:50:09;;;;;;;16.67;10.40;;;1.80;99.90;;;;;;5024197;28;20593;-50
2021/01/24 00:52:34;;;;;;;14.20;10.27;;;1.80;99.90;;;;;;5015182;28;20175;-52
2021/01/24 00:55:00;;;;;;;18.40;10.10;;;1.70;99.90;;;;;;5008686;28;20247;-51
2021/01/24 00:57:25;;;;;;;14.30;10.37;;;1.70;99.90;;;;;;5020529;28;20191;-53
2021/01/24 00:59:52;;;;;;;16.13;10.03;;;1.70;99.90;;;;;;5022858;28;20258;-50
2021/01/24 01:02:17;;;;;;;17.63;10.23;;;1.70;99.90;;;;;;5023960;28;20187;-53
2021/01/24 01:04:43;;;;;;;16.33;9.73;;;1.80;99.90;;;;;;5021405;28;20195;-53
2021/01/24 01:07:08;;;;;;;14.60;9.33;;;1.80;99.90;;;;;;5015197;28;20202;-53
2021/01/24 01:09:35;;;;;;;17.67;10.50;;;1.90;99.90;;;;;;5020987;28;20252;-55
2021/01/24 01:12:02;;;;;;;15.03;10.47;;;1.90;99.90;;;;;;5009855;28;20193;-51
2021/01/24 01:14:27;;;;;;;14.10;9.93;;;1.80;99.90;;;;;;5019218;28;20195;-50
2021/01/24 01:16:53;;;;;;;13.80;9.57;;;1.90;99.90;;;;;;5024140;28;20537;-49
2021/01/24 01:19:18;;;;;;;12.70;9.47;;;1.80;99.90;;;;;;5020431;28;20182;-55
2021/01/24 01:21:44;;;;;;;15.17;10.63;;;1.80;99.90;;;;;;5024419;28;20184;-51
2021/01/24 01:24:09;;;;;;;13.47;9.50;;;1.80;99.90;;;;;;5022546;28;20704;-55
2021/01/24 01:26:35;;;;;;;13.70;10.50;;;1.90;99.90;;;;;;5008416;28;20390;-50
2021/01/24 01:29:00;;;;;;;11.13;8.70;;;1.90;99.90;;;;;;5023959;28;20195;-53
2021/01/24 01:31:26;;;;;;;15.23;9.70;;;1.90;99.90;;;;;;5019604;28;20176;-48
2021/01/24 01:33:52;;;;;;;17.77;9.67;;;1.90;99.90;;;;;;5023524;28;20259;-55
2021/01/24 01:36:17;;;;;;;13.13;9.10;;;2.00;99.90;;;;;;5020373;28;20289;-52
2021/01/24 01:38:43;;;;;;;13.80;9.60;;;2.00;99.90;;;;;;5022890;28;20249;-53
2021/01/24 01:41:08;;;;;;;14.07;9.90;;;2.00;99.90;;;;;;5015849;28;20187;-52
2021/01/24 01:43:34;;;;;;;12.57;9.07;;;2.00;99.90;;;;;;5008907;28;20183;-55
2021/01/24 01:46:00;;;;;;;17.23;9.63;;;2.00;99.90;;;;;;5023326;28;20192;-53
2021/01/24 01:48:25;;;;;;;16.63;10.23;;;2.10;99.90;;;;;;5018544;28;20195;-53
2021/01/24 01:50:51;;;;;;;14.37;9.30;;;2.10;99.90;;;;;;5023112;28;20191;-50
2021/01/24 01:53:16;;;;;;;15.17;9.93;;;2.10;99.90;;;;;;5020065;28;20197;-56
2021/01/24 01:55:42;;;;;;;14.90;9.43;;;2.20;99.90;;;;;;5022644;28;20679;-52
2021/01/24 01:58:07;;;;;;;13.63;8.87;;;2.20;99.90;;;;;;5005124;28;20287;-50
2021/01/24 02:00:33;;;;;;;16.07;9.67;;;2.20;99.90;;;;;;5020087;28;20175;-50
2021/01/24 02:03:13;;;;;;;13.57;9.07;;;2.20;99.90;;;;;;5023208;28;20201;-49
2021/01/24 02:05:45;;;;;;;12.93;9.33;;;2.20;99.90;;;;;;5021857;28;20273;-54
2021/01/24 02:08:18;;;;;;;14.23;8.83;;;2.20;99.90;;;;;;5021353;28;20648;-49
2021/01/24 02:10:52;;;;;;;13.80;9.73;;;2.20;99.90;;;;;;5022819;28;20211;-54
2021/01/24 02:13:44;;;;;;;15.60;10.07;;;2.20;99.90;;;;;;5006395;28;20191;-54
2021/01/24 02:16:10;;;;;;;13.07;9.63;;;2.20;99.90;;;;;;5007191;28;20203;-57
2021/01/24 02:18:38;;;;;;;17.27;10.17;;;2.20;99.90;;;;;;5020937;28;20216;-51
2021/01/24 02:21:29;;;;;;;13.70;9.43;;;2.20;99.90;;;;;;5022232;28;20190;-58
2021/01/24 02:23:58;;;;;;;15.30;9.40;;;2.20;99.90;;;;;;5023093;28;20744;-53
2021/01/24 02:26:39;;;;;;;12.53;8.90;;;2.20;99.90;;;;;;5023124;28;20182;-57
2021/01/24 02:29:23;;;;;;;14.17;9.63;;;2.20;99.90;;;;;;5007639;28;20331;-52
2021/01/24 02:31:51;;;;;;;14.43;9.50;;;2.10;99.90;;;;;;5027003;28;20190;-56
2021/01/24 02:34:20;;;;;;;15.63;9.57;;;2.20;99.90;;;;;;5023757;28;20317;-53
2021/01/24 02:36:47;;;;;;;16.40;10.30;;;2.20;99.90;;;;;;5026917;28;20643;-54
2021/01/24 02:39:13;;;;;;;14.97;9.80;;;2.10;99.90;;;;;;5024226;28;20194;-53
2021/01/24 02:41:39;;;;;;;11.73;8.73;;;2.10;99.90;;;;;;5026341;28;20185;-51
2021/01/24 02:44:06;;;;;;;13.33;8.90;;;2.10;99.90;;;;;;5012605;28;20222;-55
2021/01/24 02:46:32;;;;;;;14.13;9.37;;;2.10;99.90;;;;;;5023732;28;20194;-48
2021/01/24 02:48:58;;;;;;;14.17;9.53;;;2.10;99.90;;;;;;5025738;28;20911;-47
2021/01/24 02:51:24;;;;;;;15.30;8.83;;;2.10;99.90;;;;;;5022424;28;20172;-47
2021/01/24 02:53:52;;;;;;;14.30;9.37;;;2.10;99.90;;;;;;5019311;28;20788;-55
2021/01/24 02:56:21;;;;;;;15.03;10.17;;;2.10;99.90;;;;;;5025246;28;20644;-53
2021/01/24 02:58:46;;;;;;;11.70;8.93;;;2.10;99.90;;;;;;5010138;28;20677;-54
2021/01/24 03:01:12;;;;;;;15.90;10.50;;;2.00;99.90;;;;;;5025075;28;20206;-50
2021/01/24 03:03:38;;;;;;;13.43;9.77;;;2.00;99.90;;;;;;5026184;28;20184;-55
2021/01/24 03:06:04;;;;;;;16.20;10.43;;;2.10;99.90;;;;;;5023250;28;20175;-47
2021/01/24 03:08:30;;;;;;;14.07;10.03;;;2.00;99.90;;;;;;5014396;28;20879;-58
2021/01/24 03:10:55;;;;;;;16.13;9.63;;;2.10;99.90;;;;;;5019773;28;20183;-50
2021/01/24 03:13:37;;;;;;;15.20;10.07;;;2.00;99.90;;;;;;5008746;28;20204;-48
2021/01/24 03:16:03;;;;;;;12.60;9.77;;;2.10;99.90;;;;;;5021380;28;20215;-53
2021/01/24 03:18:30;;;;;;;13.07;9.67;;;2.10;99.90;;;;;;5015967;28;20380;-48
2021/01/24 03:20:58;;;;;;;15.37;10.30;;;2.10;99.90;;;;;;5020616;28;20675;-48
2021/01/24 03:23:25;;;;;;;14.87;9.73;;;2.00;99.90;;;;;;5020881;28;20262;-50
2021/01/24 03:25:52;;;;;;;15.27;9.33;;;2.00;99.90;;;;;;5024411;28;20215;-48
2021/01/24 03:28:18;;;;;;;14.10;9.63;;;2.10;99.90;;;;;;5010881;28;20510;-51
2021/01/24 03:30:47;;;;;;;15.07;10.10;;;2.00;99.90;;;;;;5020572;28;20207;-55
2021/01/24 03:33:12;;;;;;;14.63;9.87;;;2.00;99.90;;;;;;5022150;28;20179;-52
2021/01/24 03:35:38;;;;;;;16.07;9.67;;;2.00;99.90;;;;;;5021787;28;20226;-48
2021/01/24 03:38:03;;;;;;;14.83;9.63;;;2.10;99.90;;;;;;5024655;28;20634;-54
2021/01/24 03:40:29;;;;;;;13.17;9.87;;;2.00;99.90;;;;;;5022153;28;20392;-53
2021/01/24 03:42:54;;;;;;;19.07;10.30;;;2.10;99.90;;;;;;5026031;28;20183;-49
2021/01/24 03:45:20;;;;;;;15.27;10.17;;;2.00;99.90;;;;;;5004773;28;20222;-52
2021/01/24 03:47:45;;;;;;;16.80;9.90;;;2.00;99.90;;;;;;5025357;28;20203;-53
2021/01/24 03:50:11;;;;;;;19.43;10.07;;;2.00;99.90;;;;;;5023814;28;20202;-54
2021/01/24 03:52:37;;;;;;;16.47;10.00;;;1.90;99.90;;;;;;5023753;28;20817;-49
2021/01/24 03:55:04;;;;;;;15.17;9.77;;;1.90;99.90;;;;;;5025875;28;20200;-51
2021/01/24 03:57:29;;;;;;;14.23;9.97;;;1.90;99.90;;;;;;5023047;28;20372;-53
2021/01/24 03:59:54;;;;;;;16.03;9.70;;;1.90;99.90;;;;;;5026598;28;20179;-50
2021/01/24 04:02:21;;;;;;;14.90;10.63;;;1.90;99.90;;;;;;5008430;28;20687;-50
2021/01/24 04:04:47;;;;;;;15.83;9.90;;;1.90;99.90;;;;;;5025036;28;20210;-52
2021/01/24 04:07:13;;;;;;;17.40;10.50;;;1.90;99.90;;;;;;5023690;28;20183;-52
2021/01/24 04:09:39;;;;;;;13.40;9.47;;;1.90;99.90;;;;;;5023240;28;20913;-50
2021/01/24 04:12:05;;;;;;;18.97;11.43;;;1.90;99.90;;;;;;5025027;28;20183;-53
2021/01/24 04:14:30;;;;;;;18.00;9.83;;;1.80;99.90;;;;;;5021749;28;20199;-48
2021/01/24 04:16:55;;;;;;;15.90;10.50;;;1.90;99.90;;;;;;5011846;28;20668;-49
2021/01/24 04:19:21;;;;;;;17.63;10.33;;;1.80;99.90;;;;;;5020732;28;20183;-52
2021/01/24 04:21:46;;;;;;;15.40;10.30;;;1.80;99.90;;;;;;5024811;28;20194;-48
2021/01/24 04:24:12;;;;;;;14.93;10.03;;;1.80;99.90;;;;;;5022840;28;20231;-48
2021/01/24 04:26:37;;;;;;;17.13;10.03;;;1.80;99.90;;;;;;5022770;28;20622;-50
2021/01/24 04:29:03;;;;;;;16.90;10.63;;;1.80;99.90;;;;;;5024566;28;20206;-55
2021/01/24 04:31:28;;;;;;;15.83;10.50;;;1.80;99.90;;;;;;5007723;28;20241;-52
2021/01/24 04:33:54;;;;;;;14.13;9.77;;;1.80;99.90;;;;;;5024615;28;20227;-49
2021/01/24 04:36:19;;;;;;;18.60;10.23;;;1.80;99.90;;;;;;5021148;28;20249;-54
2021/01/24 04:38:45;;;;;;;15.73;9.83;;;1.70;99.90;;;;;;5023953;28;20183;-51
2021/01/24 04:41:11;;;;;;;15.50;9.97;;;1.70;99.90;;;;;;5023181;28;20679;-55
2021/01/24 04:43:36;;;;;;;14.30;9.47;;;1.80;99.90;;;;;;5023797;28;20231;-50
2021/01/24 04:46:02;;;;;;;16.00;10.10;;;1.70;99.90;;;;;;5026037;28;20199;-52
2021/01/24 04:48:28;;;;;;;18.53;10.83;;;1.70;99.90;;;;;;5002350;28;20195;-49
2021/01/24 04:50:53;;;;;;;17.30;10.70;;;1.70;99.90;;;;;;5023810;28;20207;-48
2021/01/24 04:53:20;;;;;;;17.37;9.83;;;1.70;99.90;;;;;;5020764;28;20194;-53
2021/01/24 04:55:46;;;;;;;14.97;9.87;;;1.70;99.90;;;;;;5023697;28;20207;-47
2021/01/24 04:58:11;;;;;;;15.03;9.93;;;1.70;99.90;;;;;;5022366;28;20198;-55
2021/01/24 05:00:37;;;;;;;16.93;10.87;;;1.70;99.90;;;;;;5015939;28;20768;-49
2021/01/24 05:03:03;;;;;;;16.10;9.80;;;1.70;99.90;;;;;;5010750;28;20195;-51
2021/01/24 05:05:29;;;;;;;14.70;9.43;;;1.70;99.90;;;;;;5015265;28;20428;-50
2021/01/24 05:07:56;;;;;;;14.00;9.40;;;1.70;99.90;;;;;;5024132;28;20187;-50
2021/01/24 05:10:26;;;;;;;16.10;9.93;;;1.70;99.90;;;;;;5019795;28;20246;-54
2021/01/24 05:12:51;;;;;;;14.40;9.90;;;1.60;99.90;;;;;;5024088;28;20585;-48
2021/01/24 05:15:17;;;;;;;17.90;10.60;;;1.60;99.90;;;;;;5021128;28;20214;-52
2021/01/24 05:17:54;;;;;;;16.17;9.77;;;1.60;99.90;;;;;;5009165;28;20289;-48
2021/01/24 05:20:21;;;;;;;16.47;10.03;;;1.60;99.90;;;;;;5019966;28;20214;-51
2021/01/24 05:22:48;;;;;;;16.57;10.27;;;1.60;99.90;;;;;;5019317;28;20192;-56
2021/01/24 05:25:17;;;;;;;17.70;11.20;;;1.60;99.90;;;;;;5021863;28;20211;-54
2021/01/24 05:27:43;;;;;;;16.13;10.23;;;1.70;99.90;;;;;;5023341;28;20210;-52
2021/01/24 05:30:11;;;;;;;15.43;10.50;;;1.70;99.90;;;;;;5022116;28;20220;-49
2021/01/24 05:32:44;;;;;;;18.50;10.70;;;1.70;99.90;;;;;;5021712;28;20258;-50
2021/01/24 05:35:11;;;;;;;16.63;10.13;;;1.70;99.90;;;;;;5008069;28;20680;-48
2021/01/24 05:37:37;;;;;;;13.60;9.37;;;1.70;99.90;;;;;;5016139;28;20195;-50
2021/01/24 05:40:08;;;;;;;16.67;9.80;;;1.70;99.90;;;;;;5023326;28;20195;-58
2021/01/24 05:42:35;;;;;;;17.37;10.30;;;1.60;99.90;;;;;;5020921;28;20190;-49
2021/01/24 05:45:01;;;;;;;19.73;11.07;;;1.60;99.90;;;;;;5023697;28;20256;-49
2021/01/24 05:47:31;;;;;;;13.40;10.17;;;1.50;99.90;;;;;;5019252;28;20259;-50
2021/01/24 05:49:58;;;;;;;16.20;11.10;;;1.50;99.90;;;;;;5009214;28;20667;-46
2021/01/24 05:52:26;;;;;;;17.03;10.70;;;1.50;99.90;;;;;;5019257;28;20177;-52
2021/01/24 05:54:51;;;;;;;19.20;10.50;;;1.50;99.90;;;;;;5018787;28;20253;-54
2021/01/24 05:57:17;;;;;;;15.70;10.40;;;1.60;99.90;;;;;;5020768;28;20227;-54
2021/01/24 05:59:56;;;;;;;17.07;10.53;;;1.60;99.90;;;;;;5022621;28;20736;-49
2021/01/24 06:02:24;;;;;;;18.27;10.40;;;1.50;99.90;;;;;;5019471;28;20329;-55
2021/01/24 06:04:50;;;;;;;17.07;10.93;;;1.50;99.90;;;;;;5023392;28;20616;-49
2021/01/24 06:07:17;;;;;;;17.90;11.73;;;1.50;99.90;;;;;;5004432;28;20207;-55
2021/01/24 06:09:43;;;;;;;19.27;11.67;;;1.50;99.90;;;;;;5018545;28;20365;-49
2021/01/24 06:12:09;;;;;;;16.60;11.13;;;1.50;99.90;;;;;;5022659;28;20226;-51
2021/01/24 06:14:38;;;;;;;18.33;10.87;;;1.40;99.90;;;;;;5021523;28;20290;-49
2021/01/24 06:17:11;;;;;;;17.83;10.47;;;1.40;99.90;;;;;;5023230;28;20554;-53
2021/01/24 06:19:42;;;;;;;14.93;10.30;;;1.40;99.90;;;;;;5020042;28;20183;-52
2021/01/24 06:22:14;;;;;;;15.07;9.83;;;1.40;99.90;;;;;;5008397;28;20573;-49
2021/01/24 06:24:52;;;;;;;17.43;10.83;;;1.40;99.90;;;;;;5016919;28;20215;-53
2021/01/24 06:27:21;;;;;;;16.30;10.13;;;1.40;99.90;;;;;;5020774;28;20225;-55
2021/01/24 06:29:49;;;;;;;14.80;9.93;;;1.40;99.90;;;;;;5022990;28;20226;-49
2021/01/24 06:32:26;;;;;;;19.57;11.30;;;1.30;99.90;;;;;;5021157;28;20209;-54
2021/01/24 06:34:53;;;;;;;22.87;11.80;;;1.40;99.90;;;;;;5023319;28;20361;-49
2021/01/24 06:37:21;;;;;;;18.03;10.97;;;1.40;99.90;;;;;;5002888;28;20198;-54
2021/01/24 06:39:52;;;;;;;17.50;10.33;;;1.40;99.90;;;;;;5017682;28;20192;-49
2021/01/24 06:42:42;;;;;;;20.23;11.83;;;1.50;99.90;;;;;;5017854;28;20219;-51
2021/01/24 06:45:26;;;;;;;16.83;10.27;;;1.40;99.90;;;;;;5018696;28;20248;-51
2021/01/24 06:47:53;;;;;;;20.13;11.07;;;1.40;99.90;;;;;;5020376;28;20271;-50
2021/01/24 06:50:40;;;;;;;16.47;11.27;;;1.40;99.90;;;;;;5023214;28;20210;-53
2021/01/24 06:53:21;;;;;;;15.70;10.73;;;1.40;99.90;;;;;;5004315;28;20202;-48
2021/01/24 06:56:01;;;;;;;15.23;10.57;;;1.40;99.90;;;;;;5013979;28;20201;-52
2021/01/24 06:58:31;;;;;;;12.23;9.40;;;1.40;99.90;;;;;;5022515;28;20182;-50
2021/01/24 07:01:22;;;;;;;16.53;10.67;;;1.40;99.90;;;;;;5020109;28;20178;-50
2021/01/24 07:04:08;;;;;;;18.73;10.57;;;1.40;99.90;;;;;;5018303;28;20273;-51
2021/01/24 07:06:34;;;;;;;17.67;10.53;;;1.40;99.90;;;;;;5014060;28;20198;-48
2021/01/24 07:09:00;;;;;;;18.07;11.70;;;1.40;99.90;;;;;;5013574;28;20819;-52
2021/01/24 07:11:48;;;;;;;17.07;9.43;;;1.30;99.90;;;;;;5019955;28;20202;-53
2021/01/24 07:14:41;;;;;;;18.90;10.57;;;1.30;99.90;;;;;;5026683;28;20207;-56
2021/01/24 07:17:07;;;;;;;17.33;10.93;;;1.30;99.90;;;;;;5025808;28;20307;-52
2021/01/24 07:19:40;;;;;;;16.83;10.63;;;1.30;99.90;;;;;;5024507;28;20390;-52
2021/01/24 07:22:06;;;;;;;17.63;10.87;;;1.30;99.90;;;;;;5024143;28;20229;-50
2021/01/24 07:24:32;;;;;;;17.27;10.40;;;1.30;99.90;;;;;;5009268;28;20245;-51
2021/01/24 07:26:59;;;;;;;19.50;11.83;;;1.30;99.90;;;;;;5018969;28;20941;-52
2021/01/24 07:29:25;;;;;;;21.23;12.23;;;1.40;99.90;;;;;;5025769;28;20268;-53
2021/01/24 07:31:50;;;;;;;18.53;12.20;;;1.30;99.90;;;;;;5021910;28;20270;-48
2021/01/24 07:34:25;;;;;;;21.07;13.30;;;1.40;99.90;;;;;;5026220;28;20353;-54
2021/01/24 07:36:52;;;;;;;18.30;12.03;;;1.40;99.90;;;;;;5022061;28;20192;-49
2021/01/24 07:39:19;;;;;;;20.90;11.57;;;1.40;99.90;;;;;;5012299;28;20226;-49
2021/01/24 07:41:46;;;;;;;20.80;11.30;;;1.50;99.90;;;;;;5016928;28;20198;-52
2021/01/24 07:44:12;;;;;;;16.57;11.20;;;1.40;99.90;;;;;;5025695;28;20572;-49
2021/01/24 07:46:38;;;;;;;19.10;11.50;;;1.40;99.90;;;;;;5022778;28;20194;-49
2021/01/24 07:49:04;;;;;;;17.20;12.07;;;1.40;99.90;;;;;;5023880;28;20218;-47
2021/01/24 07:51:29;;;;;;;19.37;12.60;;;1.40;99.90;;;;;;5024606;28;20183;-55
2021/01/24 07:53:55;;;;;;;17.63;11.80;;;1.40;99.90;;;;;;5008831;28;21319;-49
2021/01/24 07:56:22;;;;;;;20.27;12.47;;;1.40;99.90;;;;;;5023267;28;20696;-48
2021/01/24 07:58:48;;;;;;;22.47;13.10;;;1.40;99.90;;;;;;5016434;28;20187;-46
2021/01/24 08:01:14;;;;;;;19.40;11.90;;;1.40;99.90;;;;;;5027393;28;20188;-50
2021/01/24 08:03:41;;;;;;;16.33;11.57;;;1.50;99.90;;;;;;5024253;28;20190;-53
2021/01/24 08:06:07;;;;;;;20.97;11.97;;;1.50;99.90;;;;;;5019641;28;20648;-53
2021/01/24 08:08:35;;;;;;;19.57;11.77;;;1.50;99.90;;;;;;5022377;28;20189;-54
2021/01/24 08:11:01;;;;;;;17.40;12.40;;;1.60;99.90;;;;;;5009351;28;20226;-53
2021/01/24 08:13:27;;;;;;;20.37;11.90;;;1.60;99.90;;;;;;5014607;28;20202;-50
2021/01/24 08:15:53;;;;;;;19.80;12.23;;;1.60;99.90;;;;;;5025707;28;20211;-57
2021/01/24 08:18:19;;;;;;;16.50;11.13;;;1.60;99.90;;;;;;5021354;28;20244;-54
2021/01/24 08:20:45;;;;;;;22.17;12.60;;;1.70;99.90;;;;;;5018964;28;20221;-56
2021/01/24 08:23:12;;;;;;;21.03;11.87;;;1.70;99.90;;;;;;5018410;28;20615;-55
2021/01/24 08:25:39;;;;;;;19.57;12.47;;;1.70;99.90;;;;;;5010649;28;20765;-54
2021/01/24 08:28:04;;;;;;;19.93;12.67;;;1.70;99.90;;;;;;5019758;28;20199;-55
2021/01/24 08:30:38;;;;;;;21.70;13.73;;;1.80;99.90;;;;;;5020277;28;20211;-48
2021/01/24 08:33:04;;;;;;;20.80;12.83;;;1.80;99.90;;;;;;5015830;28;20213;-56
2021/01/24 08:35:34;;;;;;;18.83;12.30;;;1.80;99.90;;;;;;5023020;28;20282;-54
2021/01/24 08:38:00;;;;;;;22.27;13.27;;;1.80;99.90;;;;;;5014572;28;20271;-55
2021/01/24 08:40:30;;;;;;;21.63;12.83;;;1.80;99.90;;;;;;5005129;28;20283;-52
2021/01/24 08:42:56;;;;;;;21.53;12.20;;;1.80;99.90;;;;;;5014466;28;20921;-51
2021/01/24 08:45:25;;;;;;;18.47;12.63;;;1.80;99.90;;;;;;5020591;28;20223;-51
2021/01/24 08:48:01;;;;;;;22.73;13.57;;;1.80;99.90;;;;;;5017038;28;20195;-50
2021/01/24 08:50:36;;;;;;;19.90;12.70;;;1.80;99.90;;;;;;5024276;28;20206;-56
2021/01/24 08:53:03;;;;;;;20.67;12.83;;;1.80;99.90;;;;;;5022201;28;20186;-53
2021/01/24 08:55:30;;;;;;;21.17;11.83;;;1.80;99.90;;;;;;5023313;28;20264;-54
2021/01/24 08:57:56;;;;;;;21.37;12.30;;;1.90;99.90;;;;;;5002545;28;20273;-55
2021/01/24 09:00:23;;;;;;;21.53;12.40;;;1.90;99.90;;;;;;5018307;28;20277;-55
2021/01/24 09:02:49;;;;;;;22.63;12.00;;;1.90;99.90;;;;;;5011445;28;20766;-51
2021/01/24 09:05:39;;;;;;;20.27;13.03;;;1.90;99.90;;;;;;5024515;28;20207;-54
2021/01/24 09:08:05;;;;;;;20.47;12.47;;;1.90;99.90;;;;;;5022034;28;20193;-51
2021/01/24 09:10:31;;;;;;;23.57;12.83;;;1.90;99.90;;;;;;5023824;28;20203;-55
2021/01/24 09:12:59;;;;;;;19.63;12.83;;;1.90;99.90;;;;;;5001884;28;20945;-49
2021/01/24 09:15:26;;;;;;;20.00;12.70;;;1.90;99.90;;;;;;5023942;28;20594;-55
2021/01/24 09:17:55;;;;;;;22.70;13.07;;;2.00;99.90;;;;;;5016493;28;20182;-52
2021/01/24 09:20:25;;;;;;;20.23;12.83;;;2.00;99.90;;;;;;5020503;28;20293;-48
2021/01/24 09:22:51;;;;;;;21.83;13.00;;;2.00;99.90;;;;;;5020223;28;20183;-50
2021/01/24 09:25:17;;;;;;;19.73;13.00;;;2.00;99.90;;;;;;5025742;28;20217;-49
2021/01/24 09:27:43;;;;;;;19.30;12.27;;;2.00;99.90;;;;;;5006263;28;20723;-54
2021/01/24 09:30:14;;;;;;;20.80;13.37;;;2.00;99.90;;;;;;5021917;28;20207;-49
2021/01/24 09:32:40;;;;;;;20.07;12.57;;;2.10;99.90;;;;;;5016405;28;20217;-51
2021/01/24 09:35:07;;;;;;;17.73;12.20;;;2.10;99.90;;;;;;5017921;28;20219;-52
2021/01/24 09:37:33;;;;;;;20.93;13.00;;;2.10;99.90;;;;;;5023216;28;20205;-54
2021/01/24 09:39:58;;;;;;;21.60;12.83;;;2.10;99.90;;;;;;5019927;28;20176;-48
2021/01/24 09:42:24;;;;;;;21.10;13.13;;;2.10;99.90;;;;;;5010373;28;20560;-51
2021/01/24 09:44:50;;;;;;;20.37;13.00;;;2.10;99.90;;;;;;5014572;28;20242;-54
2021/01/24 09:47:15;;;;;;;18.57;13.33;;;2.20;99.90;;;;;;5019077;28;20633;-53
2021/01/24 09:49:41;;;;;;;19.80;12.47;;;2.20;99.90;;;;;;5021289;28;20215;-53
2021/01/24 09:52:06;;;;;;;21.17;11.93;;;2.20;99.90;;;;;;5018609;28;20328;-45
2021/01/24 09:54:32;;;;;;;18.50;11.30;;;2.20;99.90;;;;;;5022649;28;20703;-57
2021/01/24 09:56:57;;;;;;;19.47;11.93;;;2.20;99.90;;;;;;5000110;28;20246;-47
2021/01/24 09:59:23;;;;;;;18.70;12.07;;;2.30;99.90;;;;;;5020078;28;20186;-46
2021/01/24 10:01:48;;;;;;;16.50;10.70;;;2.30;99.90;;;;;;5005770;28;21332;-57
2021/01/24 10:04:14;;;;;;;16.80;11.53;;;2.30;99.90;;;;;;5018545;28;20214;-55
2021/01/24 10:06:40;;;;;;;17.27;10.63;;;2.30;99.90;;;;;;5019373;28;20270;-54
2021/01/24 10:09:06;;;;;;;15.83;11.23;;;2.30;99.90;;;;;;5014124;28;20271;-49
2021/01/24 10:11:32;;;;;;;18.23;11.07;;;2.40;99.90;;;;;;5020635;28;20249;-54
2021/01/24 10:13:59;;;;;;;17.50;10.70;;;2.40;99.90;;;;;;5009267;28;20212;-49
2021/01/24 10:16:24;;;;;;;18.17;10.73;;;2.50;99.90;;;;;;5020756;28;20655;-54
2021/01/24 10:18:50;;;;;;;16.53;10.97;;;2.50;99.90;;;;;;5016749;28;20190;-53
2021/01/24 10:21:15;;;;;;;16.07;9.87;;;2.50;99.90;;;;;;5025496;28;20188;-53
2021/01/24 10:23:41;;;;;;;15.90;10.20;;;2.60;99.90;;;;;;5017030;28;20192;-48
2021/01/24 10:26:07;;;;;;;16.70;9.97;;;2.60;99.90;;;;;;5022722;28;20259;-52
2021/01/24 10:28:33;;;;;;;14.53;9.90;;;2.60;99.90;;;;;;5018989;28;20194;-56
2021/01/24 10:30:58;;;;;;;15.00;8.60;;;2.60;99.90;;;;;;5005785;28;20313;-47
2021/01/24 10:33:24;;;;;;;15.47;9.77;;;2.60;99.90;;;;;;5022856;28;20286;-47
2021/01/24 10:35:50;;;;;;;15.73;8.80;;;2.70;99.90;;;;;;5013045;28;20979;-48
2021/01/24 10:38:17;;;;;;;14.93;9.00;;;2.70;99.90;;;;;;5024322;28;20249;-50
2021/01/24 10:40:43;;;;;;;15.40;8.53;;;2.70;99.90;;;;;;5017732;28;20204;-54
2021/01/24 10:43:09;;;;;;;12.57;8.27;;;2.70;99.90;;;;;;5020709;28;20727;-50
2021/01/24 10:45:35;;;;;;;13.10;8.37;;;2.70;99.90;;;;;;5006588;28;20215;-52
2021/01/24 10:48:03;;;;;;;9.57;7.60;;;2.80;99.90;;;;;;5019247;28;20274;-52
2021/01/24 10:50:30;;;;;;;11.73;7.63;;;2.80;99.90;;;;;;5023253;28;20317;-52
2021/01/24 10:52:55;;;;;;;9.27;7.33;;;2.80;99.90;;;;;;5025074;28;20192;-51
2021/01/24 10:55:21;;;;;;;9.73;7.67;;;2.80;99.90;;;;;;5020512;28;20258;-53
2021/01/24 10:57:47;;;;;;;13.37;8.63;;;2.80;99.90;;;;;;5021839;28;20207;-53
2021/01/24 11:00:14;;;;;;;11.17;7.07;;;2.90;99.90;;;;;;5012585;28;20246;-47
2021/01/24 11:02:39;;;;;;;14.33;8.20;;;2.90;99.90;;;;;;5022034;28;20556;-54
2021/01/24 11:05:06;;;;;;;12.30;7.63;;;2.90;99.90;;;;;;5017988;28;20211;-46
2021/01/24 11:07:31;;;;;;;11.07;8.07;;;2.90;99.90;;;;;;5024274;28;20208;-53
2021/01/24 11:09:57;;;;;;;11.60;7.97;;;2.90;99.90;;;;;;5016560;28;20239;-53
2021/01/24 11:12:23;;;;;;;11.83;7.60;;;3.00;99.90;;;;;;5029887;28;20191;-49
2021/01/24 11:14:49;;;;;;;10.53;8.30;;;3.00;99.90;;;;;;5026264;28;20561;-55
2021/01/24 11:17:14;;;;;;;10.37;7.60;;;3.00;99.90;;;;;;5007182;28;20192;-49
2021/01/24 11:19:40;;;;;;;11.63;8.30;;;3.00;99.90;;;;;;5017011;28;20672;-49
2021/01/24 11:22:06;;;;;;;10.93;8.20;;;3.00;99.90;;;;;;5019374;28;20192;-52
2021/01/24 11:24:31;;;;;;;8.90;7.23;;;3.10;99.90;;;;;;5020560;28;20719;-46
2021/01/24 11:26:57;;;;;;;10.30;8.37;;;3.10;99.90;;;;;;5020724;28;20532;-48
2021/01/24 11:29:24;;;;;;;11.67;7.50;;;3.10;99.90;;;;;;5020111;28;20203;-47
2021/01/24 11:31:50;;;;;;;12.10;7.10;;;3.10;99.90;;;;;;5012574;28;20234;-49
2021/01/24 11:34:16;;;;;;;10.13;7.07;;;3.10;99.90;;;;;;5017546;28;20648;-53
2021/01/24 11:36:41;;;;;;;12.37;7.33;;;3.10;99.90;;;;;;5018180;28;20173;-55
2021/01/24 11:39:07;;;;;;;8.53;6.43;;;3.20;99.90;;;;;;5023700;28;20184;-50
2021/01/24 11:41:33;;;;;;;9.03;5.73;;;3.10;99.90;;;;;;5018045;28;20192;-51
2021/01/24 11:43:59;;;;;;;9.27;6.30;;;3.10;99.90;;;;;;5024291;28;20191;-53
2021/01/24 11:46:24;;;;;;;8.50;7.37;;;3.20;99.90;;;;;;5007186;28;21493;-51
2021/01/24 11:48:50;;;;;;;10.63;7.03;;;3.20;99.90;;;;;;5024522;28;20199;-47
2021/01/24 11:51:15;;;;;;;9.40;6.90;;;3.20;99.90;;;;;;5012832;28;20207;-52
2021/01/24 11:53:41;;;;;;;9.47;7.23;;;3.20;99.90;;;;;;5021101;28;20665;-45
2021/01/24 11:56:07;;;;;;;8.80;6.67;;;3.30;99.90;;;;;;5023136;28;20188;-54
2021/01/24 11:58:32;;;;;;;10.87;7.23;;;3.30;99.90;;;;;;5017546;28;20413;-47
2021/01/24 12:00:58;;;;;;;10.73;7.73;;;3.30;99.90;;;;;;5024814;28;20314;-54
2021/01/24 12:03:24;;;;;;;10.93;7.73;;;3.30;99.90;;;;;;5008085;28;20214;-51
2021/01/24 12:05:49;;;;;;;12.10;7.93;;;3.30;99.90;;;;;;5019766;28;20290;-51
2021/01/24 12:08:15;;;;;;;12.43;8.43;;;3.30;99.90;;;;;;5013810;28;20699;-51
2021/01/24 12:10:41;;;;;;;10.17;7.90;;;3.40;99.90;;;;;;5022470;28;20208;-50
2021/01/24 12:13:06;;;;;;;12.03;8.90;;;3.40;99.90;;;;;;5019930;28;20614;-52
2021/01/24 12:15:32;;;;;;;13.77;8.10;;;3.40;99.90;;;;;;5022132;28;20283;-52
2021/01/24 12:17:57;;;;;;;12.90;8.37;;;3.40;99.90;;;;;;5021551;28;20181;-52
2021/01/24 12:20:23;;;;;;;13.80;9.27;;;3.50;99.90;;;;;;5009080;28;20275;-51
2021/01/24 12:22:49;;;;;;;12.87;8.63;;;3.50;99.90;;;;;;5017135;28;20185;-47
2021/01/24 12:25:14;;;;;;;13.27;9.80;;;3.50;99.90;;;;;;5018033;28;20204;-56
2021/01/24 12:27:40;;;;;;;13.93;9.60;;;3.50;99.90;;;;;;5011931;28;20211;-47
2021/01/24 12:30:06;;;;;;;14.40;9.93;;;3.50;99.90;;;;;;5022874;28;20295;-50
2021/01/24 12:32:32;;;;;;;13.87;9.03;;;3.50;99.90;;;;;;5021640;28;20452;-54
2021/01/24 12:34:57;;;;;;;15.70;10.47;;;3.50;99.90;;;;;;5011052;28;20204;-56
2021/01/24 12:37:23;;;;;;;14.43;10.33;;;3.50;99.90;;;;;;5013979;28;20385;-55
2021/01/24 12:39:48;;;;;;;14.90;10.07;;;3.50;99.90;;;;;;5018927;28;20202;-48
2021/01/24 12:42:14;;;;;;;15.07;10.83;;;3.50;99.90;;;;;;5021727;28;20221;-48